createdAt,value
2018-07-26T00:00:10.441Z,6.50
2018-07-26T00:02:39.685Z,6.73
2018-07-26T00:05:08.917Z,6.83
2018-07-26T00:07:38.208Z,6.00
2018-07-26T00:10:08.772Z,6.83
2018-07-26T00:12:38.146Z,6.57
2018-07-26T00:15:08.671Z,6.30
2018-07-26T00:17:37.976Z,7.10
2018-07-26T00:20:08.269Z,7.23
2018-07-26T00:22:37.496Z,6.77
2018-07-26T00:25:06.697Z,7.43
2018-07-26T00:27:35.945Z,7.00
2018-07-26T00:30:05.503Z,7.27
2018-07-26T00:32:34.768Z,7.00
2018-07-26T00:35:04.024Z,7.40
2018-07-26T00:37:33.271Z,7.77
2018-07-26T00:40:02.601Z,8.07
2018-07-26T00:42:31.828Z,7.80
2018-07-26T00:45:01.072Z,7.47
2018-07-26T00:47:30.401Z,8.47
2018-07-26T00:49:59.689Z,7.47
2018-07-26T00:52:29.277Z,8.10
2018-07-26T00:54:58.508Z,8.07
2018-07-26T00:57:27.725Z,7.57
2018-07-26T00:59:56.972Z,7.80
2018-07-26T01:02:29.095Z,8.27
2018-07-26T01:04:58.336Z,8.43
2018-07-26T01:07:27.568Z,8.50
2018-07-26T01:09:56.835Z,8.50
2018-07-26T01:12:26.096Z,8.63
2018-07-26T01:14:55.331Z,7.40
2018-07-26T01:17:24.564Z,7.60
2018-07-26T01:19:53.972Z,7.80
2018-07-26T01:22:23.164Z,7.63
2018-07-26T01:24:52.869Z,8.43
2018-07-26T01:27:22.076Z,8.70
2018-07-26T01:29:51.366Z,8.77
2018-07-26T01:32:20.600Z,7.97
2018-07-26T01:34:49.812Z,8.07
2018-07-26T01:37:19.132Z,8.30
2018-07-26T01:39:48.439Z,7.87
2018-07-26T01:42:17.748Z,7.97
2018-07-26T01:44:47.004Z,7.87
2018-07-26T01:47:16.241Z,8.17
2018-07-26T01:49:45.565Z,7.97
2018-07-26T01:52:14.872Z,8.37
2018-07-26T01:54:44.099Z,8.00
2018-07-26T01:57:13.747Z,8.23
2018-07-26T01:59:42.974Z,8.63
2018-07-26T02:02:12.200Z,7.30
2018-07-26T02:04:41.444Z,8.00
2018-07-26T02:07:10.709Z,8.10
2018-07-26T02:09:39.465Z,8.00
2018-07-26T02:12:08.696Z,7.77
2018-07-26T02:14:37.952Z,7.97
2018-07-26T02:17:07.161Z,8.53
2018-07-26T02:19:36.427Z,8.60
2018-07-26T02:22:05.657Z,7.83
2018-07-26T02:24:34.985Z,8.67
2018-07-26T02:27:04.364Z,8.30
2018-07-26T02:29:33.680Z,8.40
2018-07-26T02:32:02.935Z,8.40
2018-07-26T02:34:32.159Z,8.20
2018-07-26T02:37:01.361Z,8.27
2018-07-26T02:39:30.664Z,8.20
2018-07-26T02:41:59.923Z,7.90
2018-07-26T02:44:29.156Z,8.97
2018-07-26T02:46:58.383Z,9.07
2018-07-26T02:49:27.656Z,8.70
2018-07-26T02:51:56.889Z,9.23
2018-07-26T02:54:26.156Z,8.43
2018-07-26T02:56:55.525Z,8.23
2018-07-26T02:59:24.847Z,8.90
2018-07-26T03:01:54.110Z,8.20
2018-07-26T03:04:23.344Z,7.90
2018-07-26T03:06:52.555Z,7.47
2018-07-26T03:09:22.880Z,7.93
2018-07-26T03:11:52.107Z,7.97
2018-07-26T03:14:21.406Z,8.67
2018-07-26T03:16:50.665Z,8.90
2018-07-26T03:19:19.970Z,8.43
2018-07-26T03:21:49.207Z,9.47
2018-07-26T03:24:18.484Z,8.33
2018-07-26T03:26:47.704Z,8.77
2018-07-26T03:29:17.096Z,7.67
2018-07-26T03:31:46.344Z,8.43
2018-07-26T03:34:15.953Z,8.17
2018-07-26T03:36:45.200Z,8.43
2018-07-26T03:39:14.447Z,8.27
2018-07-26T03:41:43.708Z,9.20
2018-07-26T03:44:13.292Z,8.63
2018-07-26T03:46:42.512Z,8.70
2018-07-26T03:49:12.096Z,8.90
2018-07-26T03:51:41.370Z,8.83
2018-07-26T03:54:10.589Z,8.40
2018-07-26T03:56:39.817Z,8.43
2018-07-26T03:59:09.089Z,7.87
2018-07-26T04:01:38.668Z,8.27
2018-07-26T04:04:08.920Z,8.70
2018-07-26T04:06:38.135Z,7.93
2018-07-26T04:09:11.103Z,8.87
2018-07-26T04:11:40.400Z,8.70
2018-07-26T04:14:09.666Z,8.73
2018-07-26T04:16:38.927Z,8.70
2018-07-26T04:19:09.130Z,9.47
2018-07-26T04:21:38.867Z,8.90
2018-07-26T04:24:08.175Z,8.83
2018-07-26T04:26:37.853Z,9.17
2018-07-26T04:29:07.168Z,8.47
2018-07-26T04:31:37.200Z,8.77
2018-07-26T04:34:06.624Z,9.27
2018-07-26T04:36:35.992Z,8.33
2018-07-26T04:39:08.293Z,8.13
2018-07-26T04:41:37.795Z,7.93
2018-07-26T04:44:07.165Z,8.30
2018-07-26T04:46:37.537Z,8.63
2018-07-26T04:49:06.915Z,9.00
2018-07-26T04:51:36.251Z,7.77
2018-07-26T04:54:05.548Z,9.57
2018-07-26T04:56:34.900Z,8.57
2018-07-26T04:59:04.277Z,9.13
2018-07-26T05:01:33.609Z,8.50
2018-07-26T05:04:02.966Z,8.77
2018-07-26T05:06:32.402Z,8.23
2018-07-26T05:09:01.759Z,9.57
2018-07-26T05:11:31.324Z,8.87
2018-07-26T05:14:00.669Z,8.90
2018-07-26T05:16:30.136Z,9.20
2018-07-26T05:18:59.627Z,8.93
2018-07-26T05:21:28.947Z,8.57
2018-07-26T05:23:58.463Z,8.93
2018-07-26T05:26:27.759Z,8.73
2018-07-26T05:28:57.212Z,8.57
2018-07-26T05:31:26.533Z,8.87
2018-07-26T05:33:55.870Z,8.53
2018-07-26T05:36:25.228Z,8.47
2018-07-26T05:38:54.748Z,8.23
2018-07-26T05:41:24.048Z,8.50
2018-07-26T05:43:53.425Z,7.90
2018-07-26T05:46:22.687Z,8.40
2018-07-26T05:48:52.046Z,8.17
2018-07-26T05:51:21.400Z,8.33
2018-07-26T05:53:50.748Z,7.57
2018-07-26T05:56:20.094Z,7.77
2018-07-26T05:58:49.592Z,7.63
2018-07-26T06:01:19.020Z,7.63
2018-07-26T06:03:48.386Z,8.13
2018-07-26T06:06:17.420Z,7.87
2018-07-26T06:08:46.723Z,8.43
2018-07-26T06:11:16.250Z,8.20
2018-07-26T06:13:45.603Z,7.60
2018-07-26T06:16:14.899Z,7.87
2018-07-26T06:18:44.337Z,7.77
2018-07-26T06:21:13.788Z,7.00
2018-07-26T06:23:43.412Z,7.40
2018-07-26T06:26:12.755Z,7.47
2018-07-26T06:28:42.158Z,7.20
2018-07-26T06:31:11.999Z,7.20
2018-07-26T06:33:42.010Z,7.23
2018-07-26T06:36:11.854Z,6.80
2018-07-26T06:38:42.815Z,7.20
2018-07-26T06:41:12.249Z,7.00
2018-07-26T06:43:42.328Z,6.77
2018-07-26T06:46:12.060Z,7.30
2018-07-26T06:48:41.759Z,7.20
2018-07-26T06:51:11.535Z,7.10
2018-07-26T06:53:41.039Z,6.97
2018-07-26T06:56:10.116Z,7.37
2018-07-26T06:58:40.597Z,7.07
2018-07-26T07:01:10.733Z,7.07
2018-07-26T07:03:40.583Z,7.17
2018-07-26T07:06:10.386Z,6.80
2018-07-26T07:08:42.189Z,6.53
2018-07-26T07:11:12.080Z,7.10
2018-07-26T07:13:42.078Z,6.50
2018-07-26T07:16:12.393Z,6.53
2018-07-26T07:18:42.241Z,6.63
2018-07-26T07:21:12.383Z,6.70
2018-07-26T07:23:41.696Z,6.53
2018-07-26T07:26:11.068Z,6.50
2018-07-26T07:28:41.420Z,6.30
2018-07-26T07:31:10.720Z,6.20
2018-07-26T07:33:40.053Z,6.50
2018-07-26T07:36:09.330Z,6.00
2018-07-26T07:38:38.765Z,5.93
2018-07-26T07:41:08.105Z,6.17
2018-07-26T07:43:36.856Z,6.80
2018-07-26T07:46:06.406Z,6.10
2018-07-26T07:48:35.958Z,6.20
2018-07-26T07:51:05.267Z,6.12
2018-07-26T07:53:34.602Z,6.20
2018-07-26T07:56:03.941Z,5.92
2018-07-26T07:58:33.261Z,5.90
2018-07-26T08:01:02.592Z,6.20
2018-07-26T08:03:31.910Z,5.72
2018-07-26T08:06:01.237Z,6.15
2018-07-26T08:08:30.679Z,5.53
2018-07-26T08:10:59.995Z,6.10
2018-07-26T08:13:29.357Z,5.70
2018-07-26T08:15:58.669Z,5.78
2018-07-26T08:18:28.169Z,5.55
2018-07-26T08:20:57.558Z,5.55
2018-07-26T08:23:26.878Z,5.72
2018-07-26T08:25:56.257Z,5.37
2018-07-26T08:28:25.552Z,6.00
2018-07-26T08:30:54.985Z,5.90
2018-07-26T08:33:24.309Z,5.97
2018-07-26T08:35:53.829Z,6.00
2018-07-26T08:38:23.208Z,5.40
2018-07-26T08:40:52.603Z,5.62
2018-07-26T08:43:21.931Z,5.70
2018-07-26T08:45:51.299Z,6.03
2018-07-26T08:48:20.539Z,5.37
2018-07-26T08:50:51.024Z,5.80
2018-07-26T08:53:26.877Z,5.58
2018-07-26T08:55:56.136Z,6.22
2018-07-26T08:58:25.415Z,6.37
2018-07-26T09:00:54.920Z,5.85
2018-07-26T09:03:24.208Z,6.00
2018-07-26T09:05:53.487Z,5.70
2018-07-26T09:08:22.827Z,5.90
2018-07-26T09:10:52.392Z,5.95
2018-07-26T09:13:21.731Z,5.80
2018-07-26T09:15:51.225Z,6.33
2018-07-26T09:18:20.504Z,5.70
2018-07-26T09:20:50.114Z,5.90
2018-07-26T09:23:19.520Z,5.70
2018-07-26T09:25:49.016Z,5.80
2018-07-26T09:28:18.355Z,6.08
2018-07-26T09:30:47.796Z,5.65
2018-07-26T09:33:17.192Z,5.25
2018-07-26T09:35:46.529Z,5.58
2018-07-26T09:38:15.892Z,5.83
2018-07-26T09:40:45.277Z,5.50
2018-07-26T09:43:14.601Z,5.60
2018-07-26T09:45:43.873Z,5.70
2018-07-26T09:48:13.199Z,5.87
2018-07-26T09:50:42.576Z,5.70
2018-07-26T09:53:11.947Z,6.03
2018-07-26T09:55:41.241Z,5.83
2018-07-26T09:58:10.604Z,6.25
2018-07-26T10:00:44.888Z,5.05
2018-07-26T10:03:14.305Z,5.42
2018-07-26T10:05:43.588Z,5.85
2018-07-26T10:08:12.922Z,6.25
2018-07-26T10:10:42.390Z,5.80
2018-07-26T10:13:11.740Z,6.10
2018-07-26T10:15:41.113Z,5.83
2018-07-26T10:18:10.462Z,6.10
2018-07-26T10:20:39.850Z,6.12
2018-07-26T10:23:09.351Z,5.95
2018-07-26T10:25:39.033Z,5.65
2018-07-26T10:28:07.870Z,5.80
2018-07-26T10:30:37.181Z,5.80
2018-07-26T10:33:06.856Z,5.75
2018-07-26T10:35:36.164Z,6.08
2018-07-26T10:38:05.516Z,6.58
2018-07-26T10:40:34.829Z,6.50
2018-07-26T10:43:04.181Z,6.25
2018-07-26T10:45:33.585Z,6.30
2018-07-26T10:48:02.911Z,5.97
2018-07-26T10:50:32.321Z,6.15
2018-07-26T10:53:01.628Z,6.55
2018-07-26T10:55:32.766Z,6.30
2018-07-26T10:58:02.144Z,5.83
2018-07-26T11:00:31.487Z,6.17
2018-07-26T11:03:00.796Z,6.35
2018-07-26T11:05:30.164Z,6.00
2018-07-26T11:07:59.464Z,6.37
2018-07-26T11:10:28.829Z,6.03
2018-07-26T11:12:58.215Z,6.30
2018-07-26T11:15:31.936Z,6.45
2018-07-26T11:18:01.844Z,5.95
2018-07-26T11:20:31.247Z,5.80
2018-07-26T11:23:00.843Z,5.83
2018-07-26T11:25:30.219Z,6.00
2018-07-26T11:27:59.026Z,5.40
2018-07-26T11:30:28.852Z,5.90
2018-07-26T11:32:58.281Z,6.55
2018-07-26T11:35:27.612Z,5.90
2018-07-26T11:37:56.980Z,6.10
2018-07-26T11:40:26.398Z,6.37
2018-07-26T11:42:55.801Z,6.08
2018-07-26T11:45:25.368Z,6.28
2018-07-26T11:47:54.725Z,5.35
2018-07-26T11:50:27.284Z,6.25
2018-07-26T11:52:56.595Z,5.87
2018-07-26T11:55:25.947Z,6.15
2018-07-26T11:57:55.325Z,5.95
2018-07-26T12:00:24.864Z,5.83
2018-07-26T12:02:54.780Z,5.62
2018-07-26T12:05:24.153Z,6.00
2018-07-26T12:07:53.627Z,5.75
2018-07-26T12:10:23.006Z,5.90
2018-07-26T12:12:52.386Z,5.83
2018-07-26T12:15:21.756Z,6.10
2018-07-26T12:17:51.068Z,6.25
2018-07-26T12:20:20.469Z,5.60
2018-07-26T12:22:49.735Z,5.75
2018-07-26T12:25:19.060Z,5.67
2018-07-26T12:27:48.522Z,5.40
2018-07-26T12:30:17.940Z,4.92
2018-07-26T12:32:47.270Z,5.05
2018-07-26T12:35:16.978Z,5.10
2018-07-26T12:37:46.360Z,4.80
2018-07-26T12:40:15.678Z,5.12
2018-07-26T12:42:45.151Z,5.22
2018-07-26T12:45:14.492Z,5.08
2018-07-26T12:47:43.862Z,5.67
2018-07-26T12:50:13.257Z,5.17
2018-07-26T12:52:42.655Z,5.33
2018-07-26T12:55:12.016Z,5.15
2018-07-26T12:57:41.531Z,5.30
2018-07-26T13:00:10.985Z,4.67
2018-07-26T13:02:40.368Z,5.58
2018-07-26T13:05:09.692Z,4.62
2018-07-26T13:07:39.247Z,5.05
2018-07-26T13:10:08.700Z,4.78
2018-07-26T13:12:38.016Z,5.60
2018-07-26T13:15:07.608Z,5.12
2018-07-26T13:17:37.014Z,5.08
2018-07-26T13:20:07.576Z,5.28
2018-07-26T13:22:36.864Z,4.75
2018-07-26T13:25:06.424Z,5.00
2018-07-26T13:27:35.699Z,4.65
2018-07-26T13:30:05.369Z,4.83
2018-07-26T13:32:34.775Z,4.90
2018-07-26T13:35:04.113Z,4.83
2018-07-26T13:37:33.433Z,4.78
2018-07-26T13:40:04.324Z,5.10
2018-07-26T13:42:33.704Z,5.03
2018-07-26T13:45:02.992Z,4.80
2018-07-26T13:47:32.316Z,4.40
2018-07-26T13:50:01.752Z,5.12
2018-07-26T13:52:31.136Z,4.65
2018-07-26T13:55:00.483Z,4.83
2018-07-26T13:57:30.118Z,5.12
2018-07-26T13:59:59.641Z,4.60
2018-07-26T14:02:28.950Z,4.78
2018-07-26T14:04:58.242Z,4.80
2018-07-26T14:07:27.572Z,4.85
2018-07-26T14:09:57.028Z,4.62
2018-07-26T14:12:26.791Z,4.30
2018-07-26T14:14:56.164Z,4.40
2018-07-26T14:17:25.504Z,4.47
2018-07-26T14:19:54.888Z,4.50
2018-07-26T14:22:24.358Z,4.70
2018-07-26T14:24:54.984Z,4.25
2018-07-26T14:27:24.300Z,4.12
2018-07-26T14:29:53.739Z,4.47
2018-07-26T14:32:23.101Z,4.25
2018-07-26T14:34:52.832Z,4.10
2018-07-26T14:37:22.248Z,3.98
2018-07-26T14:39:51.693Z,4.33
2018-07-26T14:42:21.187Z,3.85
2018-07-26T14:44:50.632Z,3.85
2018-07-26T14:47:20.938Z,3.70
2018-07-26T14:49:50.279Z,3.62
2018-07-26T14:52:19.573Z,3.35
2018-07-26T14:54:49.152Z,3.35
2018-07-26T14:57:18.468Z,3.22
2018-07-26T14:59:47.927Z,3.60
2018-07-26T15:02:17.259Z,3.30
2018-07-26T15:04:46.640Z,3.20
2018-07-26T15:07:15.923Z,3.60
2018-07-26T15:09:45.400Z,3.50
2018-07-26T15:12:14.656Z,3.30
2018-07-26T15:14:44.131Z,3.05
2018-07-26T15:17:13.548Z,3.30
2018-07-26T15:19:42.900Z,3.10
2018-07-26T15:22:11.673Z,3.20
2018-07-26T15:24:41.033Z,3.33
2018-07-26T15:27:10.379Z,3.00
2018-07-26T15:29:39.157Z,2.98
2018-07-26T15:32:08.522Z,3.00
2018-07-26T15:34:37.989Z,2.98
2018-07-26T15:37:07.353Z,2.72
2018-07-26T15:39:36.712Z,2.90
2018-07-26T15:42:06.589Z,2.77
2018-07-26T15:44:36.021Z,2.92
2018-07-26T15:47:04.790Z,2.90
2018-07-26T15:49:34.211Z,2.90
2018-07-26T15:52:03.613Z,3.08
2018-07-26T15:54:32.973Z,2.60
2018-07-26T15:57:02.353Z,2.80
2018-07-26T15:59:31.742Z,2.90
2018-07-26T16:02:01.172Z,2.77
2018-07-26T16:04:30.524Z,2.80
2018-07-26T16:06:59.825Z,2.80
2018-07-26T16:09:29.208Z,2.67
2018-07-26T16:11:58.565Z,2.80
2018-07-26T16:14:27.860Z,2.62
2018-07-26T16:16:57.240Z,2.60
2018-07-26T16:19:26.701Z,2.87
2018-07-26T16:21:56.187Z,2.60
2018-07-26T16:24:26.063Z,2.70
2018-07-26T16:26:55.410Z,2.87
2018-07-26T16:29:24.799Z,2.87
2018-07-26T16:31:56.293Z,4.37
2018-07-26T16:34:25.640Z,3.15
2018-07-26T16:36:55.372Z,3.00
2018-07-26T16:39:24.707Z,3.20
2018-07-26T16:41:53.981Z,3.25
2018-07-26T16:44:23.257Z,3.50
2018-07-26T16:46:52.585Z,3.40
2018-07-26T16:49:22.028Z,4.00
2018-07-26T16:51:51.319Z,4.22
2018-07-26T16:54:21.141Z,3.60
2018-07-26T16:56:50.608Z,3.80
2018-07-26T16:59:20.567Z,4.28
2018-07-26T17:01:50.267Z,4.83
2018-07-26T17:04:20.220Z,4.53
2018-07-26T17:06:50.128Z,4.55
2018-07-26T17:09:20.050Z,4.83
2018-07-26T17:11:49.451Z,4.78
2018-07-26T17:14:18.814Z,5.10
2018-07-26T17:16:48.148Z,5.17
2018-07-26T17:19:17.488Z,4.95
2018-07-26T17:21:46.904Z,4.60
2018-07-26T17:24:16.759Z,4.80
2018-07-26T17:26:46.269Z,4.90
2018-07-26T17:29:15.649Z,4.80
2018-07-26T17:31:45.311Z,4.92
2018-07-26T17:34:14.682Z,5.25
2018-07-26T17:36:44.031Z,5.10
2018-07-26T17:39:14.338Z,5.37
2018-07-26T17:41:43.680Z,4.90
2018-07-26T17:44:13.400Z,4.65
2018-07-26T17:46:42.762Z,4.55
2018-07-26T17:49:12.225Z,4.65
2018-07-26T17:51:41.551Z,4.72
2018-07-26T17:54:10.871Z,4.22
2018-07-26T17:56:40.236Z,4.67
2018-07-26T17:59:09.744Z,5.05
2018-07-26T18:01:39.136Z,5.10
2018-07-26T18:04:08.525Z,4.78
2018-07-26T18:06:37.879Z,4.50
2018-07-26T18:09:08.615Z,4.42
2018-07-26T18:11:37.953Z,4.75
2018-07-26T18:14:07.345Z,4.60
2018-07-26T18:16:36.703Z,4.72
2018-07-26T18:19:05.992Z,4.62
2018-07-26T18:21:35.292Z,4.67
2018-07-26T18:24:04.693Z,4.85
2018-07-26T18:26:33.989Z,4.87
2018-07-26T18:29:03.396Z,4.47
2018-07-26T18:31:32.792Z,4.83
2018-07-26T18:34:02.089Z,4.72
2018-07-26T18:36:31.363Z,4.87
2018-07-26T18:39:01.775Z,4.90
2018-07-26T18:41:31.096Z,5.10
2018-07-26T18:44:00.528Z,5.05
2018-07-26T18:46:29.712Z,5.67
2018-07-26T18:48:59.093Z,5.45
2018-07-26T18:51:28.481Z,5.42
2018-07-26T18:53:57.997Z,5.50
2018-07-26T18:56:27.327Z,5.50
2018-07-26T18:58:56.687Z,5.50
2018-07-26T19:01:26.062Z,5.28
2018-07-26T19:03:55.951Z,6.00
2018-07-26T19:06:25.462Z,5.92
2018-07-26T19:08:54.853Z,6.08
2018-07-26T19:11:25.388Z,5.83
2018-07-26T19:13:54.701Z,6.03
2018-07-26T19:16:24.030Z,6.05
2018-07-26T19:18:52.856Z,5.70
2018-07-26T19:21:22.240Z,5.87
2018-07-26T19:23:51.684Z,6.03
2018-07-26T19:26:21.044Z,6.10
2018-07-26T19:28:50.509Z,5.97
2018-07-26T19:31:20.403Z,6.47
2018-07-26T19:33:51.781Z,6.22
2018-07-26T19:36:21.566Z,6.25
2018-07-26T19:38:51.432Z,6.35
2018-07-26T19:41:21.332Z,6.53
2018-07-26T19:43:50.318Z,6.45
2018-07-26T19:46:19.916Z,6.17
2018-07-26T19:48:49.544Z,7.13
2018-07-26T19:51:19.332Z,6.93
2018-07-26T19:53:48.884Z,6.65
2018-07-26T19:56:18.794Z,5.72
2018-07-26T19:58:48.587Z,6.60
2018-07-26T20:01:18.392Z,5.83
2018-07-26T20:03:47.906Z,5.70
2018-07-26T20:06:17.567Z,6.23
2018-07-26T20:08:47.126Z,6.00
2018-07-26T20:11:16.474Z,6.33
2018-07-26T20:13:45.758Z,6.43
2018-07-26T20:16:15.289Z,6.00
2018-07-26T20:18:44.688Z,5.30
2018-07-26T20:21:14.024Z,5.83
2018-07-26T20:23:42.846Z,5.30
2018-07-26T20:26:12.152Z,5.40
2018-07-26T20:28:41.577Z,5.57
2018-07-26T20:31:11.085Z,5.90
2018-07-26T20:33:40.616Z,5.90
2018-07-26T20:36:10.126Z,5.70
2018-07-26T20:38:40.258Z,6.37
2018-07-26T20:41:09.827Z,5.97
2018-07-26T20:43:39.489Z,5.07
2018-07-26T20:46:09.150Z,5.43
2018-07-26T20:48:38.713Z,6.10
2018-07-26T20:51:08.598Z,5.40
2018-07-26T20:53:37.857Z,5.43
2018-07-26T20:56:07.132Z,6.20
2018-07-26T20:58:36.361Z,6.23
2018-07-26T21:01:05.665Z,6.10
2018-07-26T21:03:35.200Z,5.90
2018-07-26T21:06:04.489Z,5.67
2018-07-26T21:08:33.735Z,5.77
2018-07-26T21:11:02.972Z,5.60
2018-07-26T21:13:32.670Z,5.73
2018-07-26T21:16:01.947Z,5.67
2018-07-26T21:18:31.223Z,5.80
2018-07-26T21:21:00.497Z,6.10
2018-07-26T21:23:29.776Z,6.03
2018-07-26T21:25:59.057Z,5.93
2018-07-26T21:28:28.297Z,5.87
2018-07-26T21:30:57.571Z,6.10
2018-07-26T21:33:26.776Z,5.67
2018-07-26T21:35:56.277Z,6.10
2018-07-26T21:38:25.496Z,5.37
2018-07-26T21:40:54.774Z,5.53
2018-07-26T21:43:24.248Z,6.10
2018-07-26T21:45:53.549Z,5.50
2018-07-26T21:48:22.771Z,5.80
2018-07-26T21:50:52.076Z,5.57
2018-07-26T21:53:21.343Z,5.80
2018-07-26T21:55:50.585Z,5.90
2018-07-26T21:58:19.798Z,5.60
2018-07-26T22:00:54.241Z,5.97
2018-07-26T22:03:23.490Z,6.40
2018-07-26T22:05:52.897Z,6.17
2018-07-26T22:08:22.404Z,6.70
2018-07-26T22:10:52.832Z,6.43
2018-07-26T22:13:22.052Z,6.43
2018-07-26T22:15:52.372Z,6.53
2018-07-26T22:18:22.365Z,6.70
2018-07-26T22:20:51.767Z,6.00
2018-07-26T22:23:21.093Z,6.37
2018-07-26T22:25:51.188Z,6.10
2018-07-26T22:28:20.421Z,6.40
2018-07-26T22:30:49.661Z,6.23
2018-07-26T22:33:18.907Z,6.10
2018-07-26T22:35:48.212Z,6.27
2018-07-26T22:38:17.412Z,6.20
2018-07-26T22:40:46.687Z,5.93
2018-07-26T22:43:15.915Z,6.10
2018-07-26T22:45:45.152Z,5.50
2018-07-26T22:48:14.719Z,5.80
2018-07-26T22:50:44.087Z,6.17
2018-07-26T22:53:13.318Z,5.93
2018-07-26T22:55:42.724Z,6.53
2018-07-26T22:58:11.947Z,5.90
2018-07-26T23:00:41.289Z,6.20
2018-07-26T23:03:10.525Z,6.27
2018-07-26T23:05:39.793Z,5.87
2018-07-26T23:08:09.394Z,6.70
2018-07-26T23:10:40.058Z,6.30
2018-07-26T23:13:09.844Z,6.07
2018-07-26T23:15:39.375Z,6.37
2018-07-26T23:18:08.957Z,6.50
2018-07-26T23:20:38.948Z,6.70
2018-07-26T23:23:08.782Z,6.23
2018-07-26T23:25:38.388Z,6.37
2018-07-26T23:28:08.401Z,6.10
2018-07-26T23:30:38.144Z,6.83
2018-07-26T23:33:07.751Z,6.43
2018-07-26T23:35:37.364Z,6.33
2018-07-26T23:38:07.039Z,7.00
2018-07-26T23:40:37.595Z,7.00
2018-07-26T23:43:07.203Z,7.13
2018-07-26T23:45:37.092Z,6.70
2018-07-26T23:48:06.797Z,7.17
2018-07-26T23:50:37.637Z,6.50
2018-07-26T23:53:13.908Z,7.03
2018-07-26T23:55:44.152Z,7.03
2018-07-26T23:58:13.936Z,6.50
